• Join FlightAware (Why Join?)
  • Login
  • US Flag 
01:25AM EDT


 

Airport Tracker/Info


-or-


 

Live Flight TrackerFlight Track Log ✈ N27XP ✈ 21-Oct-2013 ✈ KMTN - KSOP

Flight Track Log - Related Links

Times and Time Zones

All times are in EDT time to prevent confusion due to time zone crossing. See the N27XP flight status page for this flight to view local times or setup timezone preferences in your user account.

Time Position Orientation Groundspeed Altitude Reporting Facility
EDT Latitude Longitude Course Direction KTS MPH feet Rate Location/Type
09:53PM 39.3167 -76.3833 174° South 169 194 1,600  Level Potomac TRACON
09:54PM 39.2667 -76.3667 166° South 188 216 4,300 3,120 Climbing Potomac TRACON
09:55PM 39.2167 -76.4000 207° Southwest 188 216 7,600 2,940 Climbing Potomac TRACON
09:56PM 39.1667 -76.4167 194° South 226 260 10,200 2,580 Climbing Potomac TRACON
09:57PM 39.1167 -76.4500 207° Southwest 239 275 12,600 2,100 Climbing Potomac TRACON
09:58PM 39.0500 -76.4833 201° Southwest 271 312 14,200 1,860 Climbing Potomac TRACON
09:59PM 38.8650 -76.7686 174° South  Level Estimated
09:59PM 38.9667 -76.5167 197° South 287 330 16,400  Level Potomac TRACON
10:00PM 38.9000 -76.5500 201° Southwest 299 344 18,000 900 Climbing Potomac TRACON
10:02PM 38.7378 -76.6403 203° Southwest 338 389 19,000 480 Climbing Washington Center
10:03PM 38.6414 -76.6894 202° Southwest 361 415 19,600 1,260 Climbing Washington Center
10:04PM 38.5453 -76.7253 196° South 367 422 21,500 1,200 Climbing Washington Center
10:05PM 38.4389 -76.7208 178° South 373 429 22,000 240 Climbing Washington Center
10:06PM 38.3344 -76.7431 189° South 378 435 22,000  Level Washington Center
10:07PM 38.2256 -76.7917 199° South 378 435 22,000  Level Washington Center
10:08PM 38.1189 -76.8350 198° South 384 442 22,000  Level Washington Center
10:09PM 38.0164 -76.8700 195° South 384 442 22,000  Level Washington Center
10:10PM 37.9117 -76.9078 196° South 384 442 22,000  Level Washington Center
10:11PM 37.8089 -76.9453 196° South 384 442 22,000  Level Washington Center
10:12PM 37.7083 -76.9803 195° South 384 442 22,000  Level Washington Center
10:13PM 37.6036 -77.0178 196° South 384 442 22,000  Level Washington Center
10:14PM 37.5117 -77.0528 197° South 384 442 22,000  Level Washington Center
10:15PM 37.3964 -77.0950 196° South 389 448 22,000  Level Washington Center
10:16PM 37.3017 -77.1453 203° Southwest 389 448 22,000  Level Washington Center
10:17PM 37.2300 -77.2117 216° Southwest 373 429 22,000  Level Washington Center
10:18PM 37.1517 -77.2986 222° Southwest 373 429 22,000  Level Washington Center
10:19PM 37.0794 -77.3831 223° Southwest 367 422 22,000  Level Washington Center
10:20PM 37.0053 -77.4619 220° Southwest 367 422 22,000 -660 Level Washington Center
10:21PM 36.9225 -77.5561 222° Southwest 367 422 20,800 -1,020 Descending Washington Center
10:22PM 36.8458 -77.6422 222° Southwest 367 422 20,000 -420 Descending Washington Center
10:23PM 36.7692 -77.7258 221° Southwest 367 422 20,000  Level Washington Center
10:24PM 36.6925 -77.8092 221° Southwest 367 422 20,000  Level Washington Center
10:25PM 36.6158 -77.8925 221° Southwest 373 429 20,000  Level Washington Center
10:26PM 36.5392 -77.9781 222° Southwest 373 429 20,000  Level Washington Center
10:27PM 36.4625 -78.0583 220° Southwest 368 423 20,000 -480 Level Washington Center
10:28PM 36.3875 -78.1439 223° Southwest 368 423 19,100 -1,200 Descending Washington Center
10:29PM 36.3108 -78.2236 220° Southwest 368 423 17,700 -1,560 Descending Washington Center
10:30PM 36.2381 -78.3011 221° Southwest 358 412 16,100 -1,620 Descending Washington Center
10:30PM 36.2081 -78.3336 221° Southwest 342 394 15,500 -1,500 Descending Washington Center
10:31PM 36.1675 -78.3783 222° Southwest 353 406 14,600 -1,680 Descending Washington Center
10:31PM 36.1419 -78.4033 218° Southwest 335 386 14,000 -1,560 Descending Washington Center
10:32PM 36.0989 -78.4558 225° Southwest 337 388 13,000 -1,440 Descending Washington Center
10:32PM 36.0733 -78.4806 218° Southwest 334 384 12,500 -1,740 Descending Washington Center
10:33PM 36.0281 -78.5328 223° Southwest 337 388 11,400 -1,500 Descending Washington Center
10:33PM 36.0025 -78.5575 218° Southwest 337 388 11,000 -1,140 Descending Washington Center
10:34PM 35.9575 -78.6072 222° Southwest 342 394 10,300 -960 Descending Washington Center
10:34PM 35.9253 -78.6392 219° Southwest 335 386 10,000 -300 Descending Washington Center
10:35PM 35.8889 -78.6789 221° Southwest 342 394 10,000  Level Washington Center
10:35PM 35.8653 -78.7036 220° Southwest 320 368 10,000  Level Washington Center
10:36PM 35.8222 -78.7531 223° Southwest 335 386 10,000  Level Washington Center
10:36PM 35.7989 -78.7728 214° Southwest 319 367 10,000  Level Washington Center
10:37PM 35.7558 -78.8194 221° Southwest 329 379 10,000  Level Washington Center
10:37PM 35.7278 -78.8467 218° Southwest 312 359 10,000  Level Washington Center
10:38PM 35.6892 -78.8911 223° Southwest 324 373 10,000 -540 Level Washington Center
10:39PM 35.6289 -78.9525 220° Southwest 306 352 9,200 -1,440 Descending Washington Center
10:40PM 35.5731 -79.0139 222° Southwest 289 333 7,200 -1,980 Descending Washington Center
10:42PM 35.4641 -79.1251 222° Southwest  Level FlightAware Approximate
10:49PM 35.2333 -79.3833 219° Southwest  Level FlightAware Approximate